createdAt,value
2023-02-27T00:02:09.616Z,96362.84
2023-02-27T00:04:37.477Z,96354.63
2023-02-27T00:07:07.244Z,96363.25
2023-02-27T00:09:35.265Z,96358.25
2023-02-27T00:12:03.451Z,96361.94
2023-02-27T00:14:31.456Z,96346.81
2023-02-27T00:16:59.491Z,96371.59
2023-02-27T00:19:28.108Z,96359.63
2023-02-27T00:21:56.206Z,96354.22
2023-02-27T00:24:25.861Z,96350.53
2023-02-27T00:26:53.707Z,96349.13
2023-02-27T00:29:21.582Z,96347.22
2023-02-27T00:31:49.475Z,96360.66
2023-02-27T00:34:17.433Z,96361.44
2023-02-27T00:36:45.310Z,96360.34
2023-02-27T00:39:13.143Z,96366.06
2023-02-27T00:41:42.405Z,96367.47
2023-02-27T00:44:10.245Z,96377.22
2023-02-27T00:46:38.173Z,96364.66
2023-02-27T00:49:06.048Z,96368.66
2023-02-27T00:51:33.921Z,96369.47
2023-02-27T00:54:01.774Z,96376.09
2023-02-27T00:56:29.603Z,96368.28
2023-02-27T00:58:58.812Z,96375.09
2023-02-27T01:01:26.940Z,96376.88
2023-02-27T01:03:54.957Z,96368.28
2023-02-27T01:06:22.871Z,96373.09
2023-02-27T01:08:51.568Z,96366.69
2023-02-27T01:11:19.511Z,96372.59
2023-02-27T01:13:47.337Z,96360.47
2023-02-27T01:16:16.661Z,96373.00
2023-02-27T01:18:44.593Z,96365.69
2023-02-27T01:21:12.437Z,96366.16
2023-02-27T01:23:40.296Z,96375.41
2023-02-27T01:26:08.199Z,96373.59
2023-02-27T01:28:36.379Z,96371.66
2023-02-27T01:31:04.338Z,96366.88
2023-02-27T01:33:33.922Z,96364.69
2023-02-27T01:36:01.792Z,96370.28
2023-02-27T01:38:29.667Z,96373.28
2023-02-27T01:40:57.677Z,96364.44
2023-02-27T01:43:25.553Z,96365.78
2023-02-27T01:45:54.288Z,96368.47
2023-02-27T01:48:28.228Z,96366.25
2023-02-27T01:51:04.578Z,96372.38
2023-02-27T01:53:35.956Z,96367.06
2023-02-27T01:56:10.624Z,96374.28
2023-02-27T01:58:39.943Z,96370.66
2023-02-27T02:01:08.387Z,96369.09
2023-02-27T02:03:44.886Z,96363.34
2023-02-27T02:06:14.361Z,96368.28
2023-02-27T02:08:46.694Z,96365.25
2023-02-27T02:11:17.253Z,96370.06
2023-02-27T02:13:45.712Z,96368.38
2023-02-27T02:16:32.866Z,96365.25
2023-02-27T02:19:19.150Z,96369.09
2023-02-27T02:22:17.169Z,96368.66
2023-02-27T02:25:27.014Z,96370.75
2023-02-27T02:28:11.060Z,96369.47
2023-02-27T02:31:10.085Z,96366.47
2023-02-27T02:34:15.593Z,96366.47
2023-02-27T02:37:19.497Z,96374.59
2023-02-27T02:40:12.665Z,96373.69
2023-02-27T02:42:53.372Z,96377.16
2023-02-27T02:45:33.161Z,96370.38
2023-02-27T02:48:12.587Z,96374.88
2023-02-27T02:50:49.352Z,96381.28
2023-02-27T02:53:36.638Z,96387.88
2023-02-27T02:56:14.287Z,96386.69
2023-02-27T02:58:50.966Z,96378.56
2023-02-27T03:01:26.168Z,96380.28
2023-02-27T03:03:59.880Z,96380.03
2023-02-27T03:06:33.443Z,96385.78
2023-02-27T03:09:09.744Z,96380.47
2023-02-27T03:11:44.900Z,96378.47
2023-02-27T03:14:34.592Z,96377.69
2023-02-27T03:17:09.165Z,96376.97
2023-02-27T03:19:46.057Z,96367.75
2023-02-27T03:22:20.497Z,96371.63
2023-02-27T03:24:53.297Z,96372.16
2023-02-27T03:27:26.666Z,96368.03
2023-02-27T03:30:03.294Z,96379.06
2023-02-27T03:32:39.052Z,96371.25
2023-02-27T03:35:08.489Z,96378.25
2023-02-27T03:37:46.793Z,96381.47
2023-02-27T03:40:27.273Z,96377.66
2023-02-27T03:43:06.998Z,96393.38
2023-02-27T03:45:41.249Z,96386.38
2023-02-27T03:48:09.965Z,96389.88
2023-02-27T03:50:39.140Z,96390.19
2023-02-27T03:53:14.393Z,96391.47
2023-02-27T03:55:47.840Z,96389.00
2023-02-27T03:58:17.210Z,96387.41
2023-02-27T04:00:45.294Z,96395.91
2023-02-27T04:03:13.182Z,96379.66
2023-02-27T04:05:41.220Z,96384.50
2023-02-27T04:08:40.474Z,96390.69
2023-02-27T04:11:39.349Z,96397.09
2023-02-27T04:14:37.045Z,96403.91
2023-02-27T04:17:21.655Z,96395.50
2023-02-27T04:20:18.849Z,96397.88
2023-02-27T04:22:53.605Z,96396.59
2023-02-27T04:25:51.021Z,96406.72
2023-02-27T04:28:26.113Z,96393.28
2023-02-27T04:31:05.314Z,96402.91
2023-02-27T04:33:44.963Z,96406.59
2023-02-27T04:36:19.686Z,96397.88
2023-02-27T04:38:54.659Z,96403.53
2023-02-27T04:41:28.829Z,96400.91
2023-02-27T04:43:59.742Z,96398.84
2023-02-27T04:46:33.123Z,96402.50
2023-02-27T04:49:06.614Z,96403.09
2023-02-27T04:51:39.971Z,96407.13
2023-02-27T04:54:14.249Z,96411.81
2023-02-27T04:56:47.462Z,96410.91
2023-02-27T04:59:22.316Z,96414.06
2023-02-27T05:01:58.681Z,96419.91
2023-02-27T05:04:31.512Z,96411.81
2023-02-27T05:07:04.564Z,96415.53
2023-02-27T05:09:39.507Z,96409.22
2023-02-27T05:12:17.176Z,96411.00
2023-02-27T05:14:53.270Z,96414.72
2023-02-27T05:17:30.853Z,96415.59
2023-02-27T05:19:59.750Z,96418.31
2023-02-27T05:22:38.925Z,96429.22
2023-02-27T05:25:14.924Z,96418.41
2023-02-27T05:27:51.584Z,96420.16
2023-02-27T05:30:27.904Z,96424.47
2023-02-27T05:33:04.757Z,96427.38
2023-02-27T05:35:39.277Z,96433.53
2023-02-27T05:38:16.837Z,96428.59
2023-02-27T05:40:50.965Z,96426.94
2023-02-27T05:43:26.395Z,96429.13
2023-02-27T05:46:00.600Z,96431.84
2023-02-27T05:48:37.037Z,96439.75
2023-02-27T05:51:09.306Z,96443.81
2023-02-27T05:53:45.046Z,96445.16
2023-02-27T05:56:18.032Z,96442.72
2023-02-27T05:58:52.163Z,96447.34
2023-02-27T06:01:20.048Z,96444.75
2023-02-27T06:03:49.388Z,96434.53
2023-02-27T06:06:20.055Z,96444.53
2023-02-27T06:08:48.273Z,96448.66
2023-02-27T06:11:17.846Z,96442.03
2023-02-27T06:13:45.690Z,96428.25
2023-02-27T06:16:15.979Z,96428.75
2023-02-27T06:18:43.950Z,96432.25
2023-02-27T06:21:14.599Z,96428.78
2023-02-27T06:23:42.478Z,96430.38
2023-02-27T06:26:13.647Z,96436.59
2023-02-27T06:28:42.316Z,96436.59
2023-02-27T06:31:10.300Z,96441.00
2023-02-27T06:33:38.345Z,96437.00
2023-02-27T06:36:06.640Z,96438.22
2023-02-27T06:38:36.859Z,96439.22
2023-02-27T06:41:04.806Z,96450.84
2023-02-27T06:43:34.772Z,96442.66
2023-02-27T06:46:02.634Z,96449.88
2023-02-27T06:48:30.574Z,96457.97
2023-02-27T06:53:29.046Z,96453.09
2023-02-27T06:55:58.559Z,96457.00
2023-02-27T06:58:26.369Z,96457.91
2023-02-27T07:00:54.197Z,96452.09
2023-02-27T07:03:22.093Z,96462.84
2023-02-27T07:05:50.429Z,96462.53
2023-02-27T07:08:18.504Z,96454.28
2023-02-27T07:10:49.105Z,96464.63
2023-02-27T07:13:19.836Z,96450.78
2023-02-27T07:15:48.083Z,96455.28
2023-02-27T07:18:15.959Z,96460.47
2023-02-27T07:20:43.856Z,96457.41
2023-02-27T07:23:11.756Z,96461.13
2023-02-27T07:25:39.630Z,96468.25
2023-02-27T07:28:07.570Z,96464.03
2023-02-27T07:30:36.788Z,96462.38
2023-02-27T07:33:04.792Z,96458.94
2023-02-27T07:35:32.825Z,96461.13
2023-02-27T07:38:00.729Z,96462.91
2023-02-27T07:40:28.765Z,96469.31
2023-02-27T07:42:56.600Z,96464.63
2023-02-27T07:45:24.457Z,96464.69
2023-02-27T07:47:53.712Z,96469.53
2023-02-27T07:50:21.625Z,96477.31
2023-02-27T07:52:50.112Z,96464.72
2023-02-27T07:55:18.125Z,96471.25
2023-02-27T07:57:46.445Z,96470.00
2023-02-27T08:00:15.614Z,96476.25
2023-02-27T08:02:43.910Z,96478.38
2023-02-27T08:05:13.400Z,96473.28
2023-02-27T08:07:41.294Z,96469.28
2023-02-27T08:10:10.552Z,96471.63
2023-02-27T08:12:39.304Z,96473.06
2023-02-27T08:15:08.595Z,96467.31
2023-02-27T08:17:36.648Z,96477.94
2023-02-27T08:20:05.765Z,96475.88
2023-02-27T08:22:34.987Z,96478.56
2023-02-27T08:25:02.918Z,96479.53
2023-02-27T08:27:30.775Z,96484.47
2023-02-27T08:29:58.913Z,96489.63
2023-02-27T08:32:27.434Z,96489.78
2023-02-27T08:34:55.501Z,96499.56
2023-02-27T08:37:24.367Z,96483.75
2023-02-27T08:39:53.595Z,96491.28
2023-02-27T08:42:21.441Z,96492.22
2023-02-27T08:44:54.201Z,96504.53
2023-02-27T08:47:23.571Z,96494.13
2023-02-27T08:49:51.482Z,96488.69
2023-02-27T08:52:19.392Z,96491.91
2023-02-27T08:54:47.230Z,96505.44
2023-02-27T08:57:16.518Z,96497.47
2023-02-27T08:59:44.395Z,96503.59
2023-02-27T09:02:12.568Z,96497.06
2023-02-27T09:04:40.911Z,96502.94
2023-02-27T09:07:08.781Z,96507.91
2023-02-27T09:09:36.636Z,96505.50
2023-02-27T09:12:04.834Z,96501.34
2023-02-27T09:14:34.122Z,96502.50
2023-02-27T09:17:02.038Z,96500.28
2023-02-27T09:19:29.902Z,96514.38
2023-02-27T09:21:57.795Z,96515.31
2023-02-27T09:24:25.981Z,96511.47
2023-02-27T09:26:53.886Z,96518.22
2023-02-27T09:29:23.805Z,96505.28
2023-02-27T09:31:53.429Z,96510.72
2023-02-27T09:34:21.385Z,96514.06
2023-02-27T09:36:49.195Z,96517.25
2023-02-27T09:39:17.293Z,96520.25
2023-02-27T09:41:55.958Z,96529.41
2023-02-27T09:44:45.708Z,96528.09
2023-02-27T09:47:22.030Z,96507.31
2023-02-27T09:50:01.839Z,96538.69
2023-02-27T09:52:32.988Z,96537.44
2023-02-27T09:55:00.990Z,96524.44
2023-02-27T09:57:44.754Z,96533.75
2023-02-27T10:00:32.190Z,96521.53
2023-02-27T10:03:20.513Z,96543.00
2023-02-27T10:06:11.343Z,96545.22
2023-02-27T10:08:49.278Z,96532.53
2023-02-27T10:11:28.322Z,96547.72
2023-02-27T10:14:06.858Z,96553.41
2023-02-27T10:16:36.012Z,96547.22
2023-02-27T10:19:13.780Z,96549.91
2023-02-27T10:21:48.029Z,96551.16
2023-02-27T10:24:27.631Z,96551.72
2023-02-27T10:26:58.480Z,96559.59
2023-02-27T10:29:31.314Z,96556.75
2023-02-27T10:32:06.606Z,96563.88
2023-02-27T10:34:40.373Z,96561.97
2023-02-27T10:37:15.227Z,96558.97
2023-02-27T10:39:48.903Z,96563.16
2023-02-27T10:42:19.420Z,96562.94
2023-02-27T10:44:47.419Z,96568.31
2023-02-27T10:47:17.134Z,96562.66
2023-02-27T10:49:46.417Z,96572.19
2023-02-27T10:52:16.157Z,96567.47
2023-02-27T10:54:44.700Z,96578.78
2023-02-27T10:57:26.405Z,96569.81
2023-02-27T10:59:57.744Z,96577.34
2023-02-27T11:02:33.096Z,96573.50
2023-02-27T11:05:03.741Z,96575.34
2023-02-27T11:07:35.167Z,96565.94
2023-02-27T11:10:17.767Z,96568.81
2023-02-27T11:12:59.991Z,96574.56
2023-02-27T11:15:30.465Z,96568.91
2023-02-27T11:18:25.971Z,96558.13
2023-02-27T11:20:56.123Z,96569.50
2023-02-27T11:23:26.111Z,96572.53
2023-02-27T11:26:11.719Z,96565.41
2023-02-27T11:28:39.712Z,96560.91
2023-02-27T11:31:17.861Z,96561.19
2023-02-27T11:33:52.944Z,96548.44
2023-02-27T11:36:23.682Z,96552.31
2023-02-27T11:38:55.308Z,96550.81
2023-02-27T11:41:31.877Z,96554.50
2023-02-27T11:44:02.948Z,96546.03
2023-02-27T11:46:38.917Z,96551.16
2023-02-27T11:49:31.853Z,96553.22
2023-02-27T11:52:13.106Z,96558.34
2023-02-27T11:54:47.813Z,96543.38
2023-02-27T11:57:27.053Z,96543.53
2023-02-27T12:00:06.484Z,96547.69
2023-02-27T12:02:48.143Z,96553.91
2023-02-27T12:05:20.281Z,96546.16
2023-02-27T12:07:56.935Z,96541.97
2023-02-27T12:10:29.618Z,96540.75
2023-02-27T12:13:05.184Z,96549.16
2023-02-27T12:15:45.776Z,96551.00
2023-02-27T12:18:20.970Z,96550.66
2023-02-27T12:20:55.480Z,96557.16
2023-02-27T12:23:34.193Z,96545.88
2023-02-27T12:26:08.873Z,96553.56
2023-02-27T12:28:49.162Z,96548.44
2023-02-27T12:31:45.873Z,96552.03
2023-02-27T12:34:25.923Z,96551.69
2023-02-27T12:36:55.146Z,96552.03
2023-02-27T12:39:26.340Z,96547.38
2023-02-27T12:42:24.587Z,96543.19
2023-02-27T12:45:23.517Z,96545.75
2023-02-27T12:48:08.415Z,96550.19
2023-02-27T12:50:51.143Z,96548.41
2023-02-27T12:53:42.330Z,96546.00
2023-02-27T12:56:17.401Z,96540.72
2023-02-27T12:58:56.885Z,96534.72
2023-02-27T13:01:40.355Z,96531.97
2023-02-27T13:04:23.925Z,96539.28
2023-02-27T13:06:59.801Z,96547.53
2023-02-27T13:09:38.670Z,96549.25
2023-02-27T13:12:21.956Z,96539.28
2023-02-27T13:14:57.862Z,96534.03
2023-02-27T13:17:33.318Z,96539.59
2023-02-27T13:20:20.143Z,96542.22
2023-02-27T13:22:58.697Z,96536.47
2023-02-27T13:25:28.038Z,96543.81
2023-02-27T13:28:02.295Z,96539.34
2023-02-27T13:30:36.855Z,96533.91
2023-02-27T13:33:22.117Z,96526.25
2023-02-27T13:35:59.104Z,96531.69
2023-02-27T13:38:43.494Z,96536.53
2023-02-27T13:41:40.067Z,96531.09
2023-02-27T13:44:41.998Z,96524.25
2023-02-27T13:47:40.881Z,96534.03
2023-02-27T13:50:46.168Z,96523.13
2023-02-27T13:53:20.515Z,96525.72
2023-02-27T13:55:49.169Z,96521.84
2023-02-27T13:58:23.274Z,96518.75
2023-02-27T14:01:03.159Z,96520.94
2023-02-27T14:03:32.960Z,96520.50
2023-02-27T14:06:06.255Z,96524.69
2023-02-27T14:08:49.282Z,96536.56
2023-02-27T14:11:23.785Z,96541.03
2023-02-27T14:14:06.920Z,96531.38
2023-02-27T14:16:59.571Z,96534.19
2023-02-27T14:19:56.779Z,96546.06
2023-02-27T14:22:38.819Z,96541.69
2023-02-27T14:25:19.786Z,96539.47
2023-02-27T14:27:56.973Z,96534.53
2023-02-27T14:30:38.626Z,96536.78
2023-02-27T14:33:39.600Z,96542.41
2023-02-27T14:36:17.154Z,96546.25
2023-02-27T14:38:45.345Z,96549.41
2023-02-27T14:41:37.276Z,96552.50
2023-02-27T14:44:05.935Z,96547.38
2023-02-27T14:46:38.698Z,96547.88
2023-02-27T14:49:19.863Z,96543.16
2023-02-27T14:51:47.876Z,96549.72
2023-02-27T14:54:18.727Z,96544.88
2023-02-27T14:56:55.906Z,96551.94
2023-02-27T14:59:25.327Z,96552.91
2023-02-27T15:01:55.944Z,96550.53
2023-02-27T15:04:28.738Z,96556.34
2023-02-27T15:06:59.297Z,96544.81
2023-02-27T15:09:35.443Z,96557.13
2023-02-27T15:12:04.913Z,96561.31
2023-02-27T15:14:37.455Z,96556.69
2023-02-27T15:17:16.877Z,96557.16
2023-02-27T15:19:51.344Z,96560.69
2023-02-27T15:22:38.147Z,96562.28
2023-02-27T15:25:09.176Z,96563.88
2023-02-27T15:27:38.574Z,96572.38
2023-02-27T15:30:09.667Z,96555.22
2023-02-27T15:32:43.144Z,96570.75
2023-02-27T15:35:19.983Z,96570.63
2023-02-27T15:37:53.964Z,96575.72
2023-02-27T15:40:25.841Z,96574.59
2023-02-27T15:42:55.783Z,96572.34
2023-02-27T15:45:30.204Z,96572.03
2023-02-27T15:47:58.609Z,96576.69
2023-02-27T15:50:33.107Z,96576.06
2023-02-27T15:53:09.910Z,96578.94
2023-02-27T15:55:41.842Z,96580.53
2023-02-27T15:58:21.221Z,96583.59
2023-02-27T16:00:50.050Z,96590.97
2023-02-27T16:03:25.286Z,96592.41
2023-02-27T16:05:54.682Z,96590.13
2023-02-27T16:08:22.679Z,96594.59
2023-02-27T16:10:53.051Z,96598.91
2023-02-27T16:13:22.230Z,96603.06
2023-02-27T16:16:01.170Z,96608.75
2023-02-27T16:18:34.791Z,96609.53
2023-02-27T16:21:16.093Z,96611.09
2023-02-27T16:23:45.283Z,96611.09
2023-02-27T16:26:31.870Z,96619.84
2023-02-27T16:29:03.698Z,96623.69
2023-02-27T16:31:33.777Z,96635.00
2023-02-27T16:34:04.255Z,96625.38
2023-02-27T16:36:34.360Z,96632.59
2023-02-27T16:39:02.233Z,96642.00
2023-02-27T16:41:30.185Z,96633.22
2023-02-27T16:43:58.173Z,96637.19
2023-02-27T16:46:26.140Z,96641.81
2023-02-27T16:48:56.140Z,96642.69
2023-02-27T16:51:27.418Z,96641.06
2023-02-27T16:53:57.796Z,96645.53
2023-02-27T16:56:37.861Z,96655.09
2023-02-27T16:59:07.108Z,96654.78
2023-02-27T17:01:35.057Z,96664.69
2023-02-27T17:04:08.707Z,96669.31
2023-02-27T17:06:41.376Z,96659.94
2023-02-27T17:09:12.600Z,96661.34
2023-02-27T17:11:40.556Z,96664.94
2023-02-27T17:14:08.444Z,96666.41
2023-02-27T17:16:36.434Z,96670.53
2023-02-27T17:19:04.745Z,96672.38
2023-02-27T17:21:32.855Z,96675.31
2023-02-27T17:24:00.875Z,96675.31
2023-02-27T17:26:31.199Z,96674.00
2023-02-27T17:28:59.309Z,96676.03
2023-02-27T17:31:27.200Z,96677.78
2023-02-27T17:33:55.832Z,96673.13
2023-02-27T17:36:24.989Z,96683.22
2023-02-27T17:38:56.886Z,96669.56
2023-02-27T17:41:25.529Z,96671.81
2023-02-27T17:43:56.896Z,96676.78
2023-02-27T17:46:27.458Z,96678.53
2023-02-27T17:49:00.111Z,96686.69
2023-02-27T17:51:30.095Z,96691.31
2023-02-27T17:53:58.488Z,96690.38
2023-02-27T17:56:27.097Z,96686.91
2023-02-27T17:58:56.625Z,96687.56
2023-02-27T18:01:26.812Z,96680.88
2023-02-27T18:03:55.813Z,96694.97
2023-02-27T18:06:25.348Z,96691.13
2023-02-27T18:08:53.249Z,96685.31
2023-02-27T18:11:23.142Z,96687.91
2023-02-27T18:13:52.087Z,96692.19
2023-02-27T18:16:22.839Z,96697.31
2023-02-27T18:18:51.381Z,96702.25
2023-02-27T18:21:21.133Z,96700.22
2023-02-27T18:23:49.985Z,96702.25
2023-02-27T18:26:29.479Z,96701.03
2023-02-27T18:29:00.273Z,96705.25
2023-02-27T18:31:33.030Z,96710.03
2023-02-27T18:34:01.806Z,96701.69
2023-02-27T18:36:30.330Z,96700.56
2023-02-27T18:39:00.383Z,96704.78
2023-02-27T18:41:29.159Z,96703.06
2023-02-27T18:43:58.482Z,96707.84
2023-02-27T18:46:27.549Z,96705.88
2023-02-27T18:48:57.034Z,96709.59
2023-02-27T18:51:25.351Z,96705.59
2023-02-27T18:53:53.317Z,96695.44
2023-02-27T18:56:24.225Z,96698.66
2023-02-27T18:58:53.467Z,96699.06
2023-02-27T19:01:25.276Z,96712.50
2023-02-27T19:03:56.310Z,96706.75
2023-02-27T19:06:25.803Z,96709.13
2023-02-27T19:08:53.975Z,96702.81
2023-02-27T19:11:23.626Z,96712.66
2023-02-27T19:13:53.627Z,96718.41
2023-02-27T19:16:21.562Z,96710.75
2023-02-27T19:18:49.511Z,96710.25
2023-02-27T19:21:17.495Z,96710.19
2023-02-27T19:23:46.969Z,96708.75
2023-02-27T19:26:15.270Z,96721.88
2023-02-27T19:28:43.251Z,96706.34
2023-02-27T19:31:13.447Z,96714.81
2023-02-27T19:33:41.531Z,96722.97
2023-02-27T19:36:12.258Z,96723.44
2023-02-27T19:38:40.610Z,96723.78
2023-02-27T19:41:14.749Z,96714.72
2023-02-27T19:43:44.642Z,96724.25
2023-02-27T19:46:14.816Z,96722.47
2023-02-27T19:48:43.141Z,96729.00
2023-02-27T19:51:14.125Z,96718.03
2023-02-27T19:53:45.311Z,96720.72
2023-02-27T19:56:16.738Z,96716.44
2023-02-27T19:58:45.241Z,96716.44
2023-02-27T20:01:13.759Z,96715.53
2023-02-27T20:03:43.776Z,96721.44
2023-02-27T20:06:18.615Z,96723.03
2023-02-27T20:08:46.824Z,96722.13
2023-02-27T20:11:17.414Z,96721.25
2023-02-27T20:13:45.942Z,96726.28
2023-02-27T20:16:16.449Z,96722.47
2023-02-27T20:18:45.503Z,96720.25
2023-02-27T20:21:16.618Z,96725.47
2023-02-27T20:23:46.640Z,96716.59
2023-02-27T20:26:18.409Z,96712.84
2023-02-27T20:28:47.680Z,96716.88
2023-02-27T20:31:18.917Z,96711.25
2023-02-27T20:33:47.221Z,96721.31
2023-02-27T20:36:16.109Z,96706.63
2023-02-27T20:38:44.975Z,96706.16
2023-02-27T20:41:15.396Z,96709.25
2023-02-27T20:43:45.319Z,96716.81
2023-02-27T20:46:15.893Z,96710.88
2023-02-27T20:48:44.140Z,96705.56
2023-02-27T20:51:14.713Z,96708.47
2023-02-27T20:53:58.362Z,96704.03
2023-02-27T20:56:29.733Z,96683.56
2023-02-27T20:58:59.743Z,96694.31
2023-02-27T21:01:28.302Z,96693.19
2023-02-27T21:03:59.103Z,96695.81
2023-02-27T21:06:27.573Z,96698.22
2023-02-27T21:08:57.910Z,96700.66
2023-02-27T21:11:29.217Z,96706.28
2023-02-27T21:14:04.398Z,96697.63
2023-02-27T21:16:32.780Z,96696.03
2023-02-27T21:19:00.780Z,96692.19
2023-02-27T21:21:31.427Z,96697.63
2023-02-27T21:24:00.371Z,96700.94
2023-02-27T21:26:31.265Z,96685.19
2023-02-27T21:29:05.660Z,96684.16
2023-02-27T21:31:35.303Z,96688.19
2023-02-27T21:34:06.907Z,96693.44
2023-02-27T21:36:36.777Z,96684.25
2023-02-27T21:39:08.424Z,96690.81
2023-02-27T21:41:36.418Z,96697.81
2023-02-27T21:44:07.656Z,96691.63
2023-02-27T21:46:36.428Z,96682.78
2023-02-27T21:49:04.864Z,96691.91
2023-02-27T21:51:40.604Z,96679.66
2023-02-27T21:54:12.140Z,96681.16
2023-02-27T21:56:40.728Z,96674.31
2023-02-27T21:59:10.441Z,96681.34
2023-02-27T22:01:39.336Z,96674.41
2023-02-27T22:04:07.704Z,96662.78
2023-02-27T22:06:36.439Z,96671.41
2023-02-27T22:09:07.988Z,96665.28
2023-02-27T22:11:36.539Z,96665.38
2023-02-27T22:14:12.167Z,96666.19
2023-02-27T22:16:41.073Z,96635.97
2023-02-27T22:19:10.843Z,96640.50
2023-02-27T22:21:39.575Z,96639.38
2023-02-27T22:24:08.692Z,96667.19
2023-02-27T22:26:37.203Z,96654.63
2023-02-27T22:29:07.527Z,96667.09
2023-02-27T22:31:38.835Z,96651.91
2023-02-27T22:34:09.876Z,96664.78
2023-02-27T22:36:38.414Z,96663.19
2023-02-27T22:39:07.229Z,96675.31
2023-02-27T22:41:37.893Z,96666.09
2023-02-27T22:44:07.505Z,96664.09
2023-02-27T22:46:39.862Z,96658.47
2023-02-27T22:49:16.746Z,96661.09
2023-02-27T22:51:44.926Z,96661.66
2023-02-27T22:54:14.961Z,96662.47
2023-02-27T22:56:43.618Z,96655.03
2023-02-27T22:59:12.022Z,96654.75
2023-02-27T23:01:41.439Z,96651.91
2023-02-27T23:04:12.279Z,96654.75
2023-02-27T23:06:42.906Z,96659.75
2023-02-27T23:09:14.937Z,96653.44
2023-02-27T23:11:43.080Z,96647.81
2023-02-27T23:14:12.244Z,96657.47
2023-02-27T23:16:45.398Z,96657.16
2023-02-27T23:19:15.610Z,96647.41
2023-02-27T23:21:43.693Z,96653.63
2023-02-27T23:24:14.782Z,96658.03
2023-02-27T23:26:45.233Z,96648.81
2023-02-27T23:29:13.381Z,96651.44
2023-02-27T23:31:43.265Z,96645.41
2023-02-27T23:34:11.433Z,96640.78
2023-02-27T23:36:40.676Z,96642.88
2023-02-27T23:39:09.745Z,96645.00
2023-02-27T23:41:37.586Z,96636.69
2023-02-27T23:44:23.302Z,96641.06
2023-02-27T23:46:52.791Z,96638.69
2023-02-27T23:49:20.852Z,96646.31
2023-02-27T23:51:48.702Z,96628.94
2023-02-27T23:54:16.548Z,96621.09
2023-02-27T23:56:44.698Z,96627.31
2023-02-27T23:59:12.536Z,96624.03
